Time,TemperatureF,DewpointF,PressureIn,WindDirection,WindDirectionDegrees,WindSpeedMPH,WindSpeedGustMPH,Humidity,HourlyPrecipIn,Conditions,Clouds,dailyrainin,SolarRadiationWatts/m^2,SoftwareType,DateUTC
2013-11-23 00:02:00,41.9,40.6,30.23,North,355,12.1,15.0,95,0.00,,,0.00,0.0,meteobridge,2013-11-23 06:02:00,
2013-11-23 00:07:00,42.1,40.8,30.23,North,355,13.0,16.1,95,0.00,,,0.00,0.0,meteobridge,2013-11-23 06:07:00,
2013-11-23 00:12:00,42.3,41.0,30.23,NNW,348,15.0,19.0,95,0.00,,,0.00,0.0,meteobridge,2013-11-23 06:12:00,
2013-11-23 00:17:00,42.3,41.2,30.22,North,0,8.9,13.0,96,0.00,,,0.00,0.0,meteobridge,2013-11-23 06:17:00,
2013-11-23 00:22:00,42.3,41.0,30.22,NNW,340,12.1,17.0,95,0.00,,,0.00,0.0,meteobridge,2013-11-23 06:22:00,
2013-11-23 00:27:00,42.1,40.8,30.22,North,0,13.0,16.1,95,0.00,,,0.00,0.0,meteobridge,2013-11-23 06:27:00,
2013-11-23 00:32:00,42.1,41.0,30.23,NNW,346,6.9,14.1,96,0.00,,,0.00,0.0,meteobridge,2013-11-23 06:32:00,
2013-11-23 00:37:00,42.3,41.0,30.23,NNE,22,13.0,15.0,95,0.00,,,0.00,0.0,meteobridge,2013-11-23 06:37:00,
2013-11-23 00:42:00,41.7,40.5,30.23,NNW,342,15.0,15.0,95,0.00,,,0.00,0.0,meteobridge,2013-11-23 06:42:00,
2013-11-23 00:47:00,42.1,41.0,30.23,NNW,344,14.1,17.0,96,0.00,,,0.00,0.0,meteobridge,2013-11-23 06:47:00,
2013-11-23 00:52:00,42.3,41.2,30.23,North,9,8.9,11.0,96,0.00,,,0.00,0.0,meteobridge,2013-11-23 06:52:00,
2013-11-23 00:57:00,41.9,40.6,30.23,NNW,343,11.0,16.1,95,0.00,,,0.00,0.0,meteobridge,2013-11-23 06:57:00,
2013-11-23 01:02:00,41.7,40.6,30.23,NNW,340,8.1,16.1,96,0.00,,,0.00,0.0,meteobridge,2013-11-23 07:02:00,
2013-11-23 01:07:00,42.1,41.0,30.23,North,355,10.1,17.0,96,0.00,,,0.00,0.0,meteobridge,2013-11-23 07:07:00,
2013-11-23 01:12:00,41.7,40.6,30.23,North,355,16.1,19.0,96,0.00,,,0.00,0.0,meteobridge,2013-11-23 07:12:00,
2013-11-23 01:17:00,41.7,40.6,30.23,North,11,14.1,21.0,96,0.00,,,0.00,0.0,meteobridge,2013-11-23 07:17:00,
2013-11-23 01:22:00,41.9,40.8,30.23,North,355,17.0,19.0,96,0.00,,,0.00,0.0,meteobridge,2013-11-23 07:22:00,
2013-11-23 01:27:00,41.9,40.8,30.23,North,0,8.1,13.0,96,0.00,,,0.00,0.0,meteobridge,2013-11-23 07:27:00,
2013-11-23 01:32:00,41.7,40.6,30.24,North,5,21.0,21.0,96,0.00,,,0.00,0.0,meteobridge,2013-11-23 07:32:00,
2013-11-23 01:37:00,41.7,40.6,30.24,North,0,23.9,23.9,96,0.00,,,0.00,0.0,meteobridge,2013-11-23 07:37:00,
2013-11-23 01:42:00,41.7,40.5,30.24,NNE,13,13.0,21.0,95,0.00,,,0.00,0.0,meteobridge,2013-11-23 07:42:00,
2013-11-23 01:47:00,41.5,40.3,30.24,North,5,13.0,19.9,95,0.00,,,0.00,0.0,meteobridge,2013-11-23 07:47:00,
2013-11-23 01:52:00,41.5,40.3,30.24,North,9,13.0,17.9,95,0.00,,,0.00,0.0,meteobridge,2013-11-23 07:52:00,
2013-11-23 01:57:00,41.5,40.3,30.24,NNE,21,13.0,17.0,95,0.00,,,0.00,0.0,meteobridge,2013-11-23 07:57:00,
2013-11-23 02:02:00,41.7,40.5,30.24,NNW,344,11.0,17.0,95,0.00,,,0.00,0.0,meteobridge,2013-11-23 08:02:00,
2013-11-23 02:07:00,41.5,40.3,30.24,North,355,15.0,23.0,95,0.00,,,0.00,0.0,meteobridge,2013-11-23 08:07:00,
2013-11-23 02:12:00,41.7,40.6,30.24,North,11,12.1,15.0,96,0.00,,,0.00,0.0,meteobridge,2013-11-23 08:12:00,
2013-11-23 02:17:00,41.5,40.3,30.24,North,355,6.0,14.1,95,0.00,,,0.00,0.0,meteobridge,2013-11-23 08:17:00,
2013-11-23 02:22:00,41.5,40.3,30.24,North,11,13.0,19.0,95,0.00,,,0.00,0.0,meteobridge,2013-11-23 08:22:00,
2013-11-23 02:27:00,41.9,40.8,30.24,NNW,342,8.9,14.1,96,0.00,,,0.00,0.0,meteobridge,2013-11-23 08:27:00,
2013-11-23 02:32:00,41.9,40.6,30.22,North,5,17.0,17.9,95,0.00,,,0.00,0.0,meteobridge,2013-11-23 08:32:00,
2013-11-23 02:37:00,41.9,40.6,30.22,North,355,17.9,21.0,95,0.00,,,0.00,0.0,meteobridge,2013-11-23 08:37:00,
2013-11-23 02:42:00,41.9,40.6,30.22,NNW,338,10.1,19.0,95,0.00,,,0.00,0.0,meteobridge,2013-11-23 08:42:00,
2013-11-23 02:47:00,42.1,40.8,30.22,North,0,13.0,17.9,95,0.00,,,0.00,0.0,meteobridge,2013-11-23 08:47:00,
2013-11-23 02:52:00,42.1,40.8,30.22,North,5,8.9,14.1,95,0.00,,,0.00,0.0,meteobridge,2013-11-23 08:52:00,
2013-11-23 02:57:00,42.1,40.8,30.22,North,350,10.1,23.0,95,0.00,,,0.00,0.0,meteobridge,2013-11-23 08:57:00,
2013-11-23 03:02:00,42.1,40.8,30.22,NNE,17,11.0,17.9,95,0.00,,,0.00,0.0,meteobridge,2013-11-23 09:02:00,
2013-11-23 03:07:00,42.3,41.0,30.22,North,11,8.9,17.0,95,0.00,,,0.00,0.0,meteobridge,2013-11-23 09:07:00,
2013-11-23 03:12:00,42.1,40.8,30.22,North,355,10.1,15.0,95,0.00,,,0.00,0.0,meteobridge,2013-11-23 09:12:00,
2013-11-23 03:17:00,42.1,40.8,30.22,North,0,13.0,17.0,95,0.00,,,0.00,0.0,meteobridge,2013-11-23 09:17:00,
2013-11-23 03:22:00,42.1,40.5,30.22,North,9,17.9,21.0,94,0.00,,,0.00,0.0,meteobridge,2013-11-23 09:22:00,
2013-11-23 03:27:00,42.4,41.2,30.22,NNW,331,10.1,15.0,95,0.00,,,0.00,0.0,meteobridge,2013-11-23 09:27:00,
2013-11-23 03:32:00,42.4,41.2,30.22,North,5,11.0,14.1,95,0.00,,,0.00,0.0,meteobridge,2013-11-23 09:32:00,
2013-11-23 03:37:00,42.6,41.4,30.22,NE,35,11.0,16.1,95,0.00,,,0.00,0.0,meteobridge,2013-11-23 09:37:00,
2013-11-23 03:42:00,42.4,40.8,30.22,North,355,11.0,19.9,94,0.00,,,0.00,0.0,meteobridge,2013-11-23 09:42:00,
2013-11-23 03:47:00,42.6,41.4,30.22,North,350,8.1,16.1,95,0.00,,,0.00,0.0,meteobridge,2013-11-23 09:47:00,
2013-11-23 03:52:00,42.6,41.4,30.22,North,355,13.0,14.1,95,0.00,,,0.00,0.0,meteobridge,2013-11-23 09:52:00,
2013-11-23 03:57:00,42.4,41.2,30.22,North,0,12.1,17.0,95,0.00,,,0.00,0.0,meteobridge,2013-11-23 09:57:00,
2013-11-23 04:02:00,42.6,41.4,30.22,North,355,13.0,19.0,95,0.00,,,0.00,0.0,meteobridge,2013-11-23 10:02:00,
2013-11-23 04:07:00,42.6,41.4,30.22,North,355,6.9,19.0,95,0.00,,,0.00,0.0,meteobridge,2013-11-23 10:07:00,
2013-11-23 04:13:00,42.6,41.4,30.22,NNW,341,11.0,17.0,95,0.00,,,0.00,0.0,meteobridge,2013-11-23 10:13:00,
2013-11-23 04:18:00,42.6,41.4,30.22,NNW,337,15.0,19.9,95,0.00,,,0.00,0.0,meteobridge,2013-11-23 10:18:00,
2013-11-23 04:23:00,42.6,41.0,30.22,North,5,19.0,19.0,94,0.00,,,0.00,0.0,meteobridge,2013-11-23 10:23:00,
2013-11-23 04:28:00,42.4,41.2,30.22,NNE,28,14.1,21.0,95,0.00,,,0.00,0.0,meteobridge,2013-11-23 10:28:00,
2013-11-23 04:33:00,42.4,40.8,30.22,NNE,24,8.9,17.0,94,0.00,,,0.00,0.0,meteobridge,2013-11-23 10:33:00,
2013-11-23 04:38:00,42.8,41.5,30.22,NNE,24,12.1,14.1,95,0.00,,,0.00,0.0,meteobridge,2013-11-23 10:38:00,
2013-11-23 04:43:00,42.4,41.2,30.22,NNE,17,11.0,17.0,95,0.00,,,0.00,0.0,meteobridge,2013-11-23 10:43:00,
2013-11-23 04:48:00,42.4,41.2,30.22,NNE,33,8.9,17.0,95,0.00,,,0.00,0.0,meteobridge,2013-11-23 10:48:00,
2013-11-23 04:53:00,42.6,41.4,30.22,North,5,12.1,17.0,95,0.00,,,0.00,0.0,meteobridge,2013-11-23 10:53:00,
2013-11-23 04:58:00,42.4,41.2,30.22,North,355,13.0,17.9,95,0.00,,,0.00,0.0,meteobridge,2013-11-23 10:58:00,
2013-11-23 05:03:00,42.3,41.0,30.22,NNE,29,10.1,16.1,95,0.00,,,0.00,0.0,meteobridge,2013-11-23 11:03:00,
2013-11-23 05:08:00,42.6,41.5,30.22,NNE,14,10.1,17.0,96,0.00,,,0.00,0.0,meteobridge,2013-11-23 11:08:00,
2013-11-23 05:13:00,42.6,41.4,30.22,NW,317,12.1,17.0,95,0.00,,,0.00,0.0,meteobridge,2013-11-23 11:13:00,
2013-11-23 05:18:00,42.6,41.5,30.22,North,0,12.1,16.1,96,0.00,,,0.00,0.0,meteobridge,2013-11-23 11:18:00,
2013-11-23 05:23:00,42.6,41.4,30.22,North,5,13.0,17.0,95,0.00,,,0.00,0.0,meteobridge,2013-11-23 11:23:00,
2013-11-23 05:28:00,42.4,41.2,30.22,North,355,6.9,17.9,95,0.00,,,0.00,0.0,meteobridge,2013-11-23 11:28:00,
2013-11-23 05:33:00,42.4,41.4,30.23,NNE,23,11.0,19.9,96,0.00,,,0.00,0.0,meteobridge,2013-11-23 11:33:00,
2013-11-23 05:38:00,42.4,41.4,30.23,North,5,17.0,19.9,96,0.00,,,0.00,0.0,meteobridge,2013-11-23 11:38:00,
2013-11-23 05:43:00,42.6,41.5,30.23,North,0,14.1,17.0,96,0.00,,,0.00,0.0,meteobridge,2013-11-23 11:43:00,
2013-11-23 05:48:00,42.6,41.5,30.22,North,5,15.0,16.1,96,0.00,,,0.00,0.0,meteobridge,2013-11-23 11:48:00,
2013-11-23 05:53:00,42.8,41.7,30.22,North,350,15.0,17.9,96,0.00,,,0.00,0.0,meteobridge,2013-11-23 11:53:00,
2013-11-23 05:58:00,42.6,41.4,30.22,North,0,14.1,16.1,95,0.00,,,0.00,0.0,meteobridge,2013-11-23 11:58:00,
2013-11-23 06:03:00,42.6,41.5,30.23,NNE,31,6.0,15.0,96,0.00,,,0.00,0.0,meteobridge,2013-11-23 12:03:00,
2013-11-23 06:08:00,42.6,41.4,30.23,North,355,13.0,15.0,95,0.00,,,0.00,0.0,meteobridge,2013-11-23 12:08:00,
2013-11-23 06:13:00,42.8,41.7,30.23,North,0,13.0,19.9,96,0.00,,,0.00,0.0,meteobridge,2013-11-23 12:13:00,
2013-11-23 06:18:00,43.0,41.9,30.24,NNW,341,12.1,17.0,96,0.00,,,0.00,0.0,meteobridge,2013-11-23 12:18:00,
2013-11-23 06:23:00,43.2,42.1,30.24,NNE,15,12.1,17.0,96,0.00,,,0.00,0.0,meteobridge,2013-11-23 12:23:00,
2013-11-23 06:28:00,43.0,41.9,30.24,North,5,15.0,21.0,96,0.00,,,0.00,0.0,meteobridge,2013-11-23 12:28:00,
2013-11-23 06:33:00,43.2,42.1,30.25,NNE,13,10.1,16.1,96,0.00,,,0.00,0.0,meteobridge,2013-11-23 12:33:00,
2013-11-23 06:38:00,43.2,42.1,30.25,North,355,15.0,17.0,96,0.00,,,0.00,0.0,meteobridge,2013-11-23 12:38:00,
2013-11-23 06:43:00,43.2,42.1,30.25,North,355,10.1,17.0,96,0.00,,,0.00,0.0,meteobridge,2013-11-23 12:43:00,
2013-11-23 06:48:00,43.2,42.1,30.25,North,0,14.1,19.0,96,0.00,,,0.00,0.0,meteobridge,2013-11-23 12:48:00,
2013-11-23 06:53:00,43.3,42.3,30.25,North,11,11.0,17.0,96,0.00,,,0.00,0.0,meteobridge,2013-11-23 12:53:00,
2013-11-23 06:58:00,43.2,42.1,30.25,North,355,17.9,17.9,96,0.00,,,0.00,0.0,meteobridge,2013-11-23 12:58:00,
2013-11-23 07:03:00,43.2,42.1,30.26,North,0,16.1,25.1,96,0.00,,,0.00,0.0,meteobridge,2013-11-23 13:03:00,
2013-11-23 07:08:00,43.3,42.3,30.26,NNW,340,8.9,17.9,96,0.00,,,0.00,0.0,meteobridge,2013-11-23 13:08:00,
2013-11-23 07:13:00,43.5,42.4,30.26,NNW,342,14.1,19.0,96,0.00,,,0.00,0.0,meteobridge,2013-11-23 13:13:00,
2013-11-23 07:18:00,43.5,42.4,30.27,NW,321,8.1,19.0,96,0.00,,,0.00,5.0,meteobridge,2013-11-23 13:18:00,
2013-11-23 07:23:00,43.5,42.4,30.27,North,355,14.1,21.0,96,0.00,,,0.00,11.0,meteobridge,2013-11-23 13:23:00,
2013-11-23 07:29:00,43.7,42.6,30.27,North,355,15.0,19.9,96,0.00,,,0.00,11.0,meteobridge,2013-11-23 13:29:00,
2013-11-23 07:34:00,43.7,42.6,30.27,North,355,21.0,21.0,96,0.00,,,0.00,11.0,meteobridge,2013-11-23 13:34:00,
2013-11-23 07:39:00,43.9,42.6,30.27,North,0,11.0,19.0,95,0.00,,,0.00,14.0,meteobridge,2013-11-23 13:39:00,
2013-11-23 07:43:00,43.9,42.8,30.27,North,355,12.1,17.9,96,0.00,,,0.00,14.0,meteobridge,2013-11-23 13:43:00,
2013-11-23 07:49:00,43.5,42.3,30.27,North,0,10.1,19.9,95,0.00,,,0.00,19.0,meteobridge,2013-11-23 13:49:00,
2013-11-23 07:54:00,43.5,42.3,30.27,North,5,13.0,19.0,95,0.00,,,0.00,23.0,meteobridge,2013-11-23 13:54:00,
2013-11-23 07:59:00,43.9,42.6,30.27,NNE,20,8.9,17.9,95,0.00,,,0.00,30.0,meteobridge,2013-11-23 13:59:00,
2013-11-23 08:04:00,43.9,42.6,30.27,North,9,12.1,15.0,95,0.00,,,0.00,44.0,meteobridge,2013-11-23 14:04:00,
2013-11-23 08:09:00,43.7,42.4,30.27,North,5,17.9,21.0,95,0.00,,,0.00,51.0,meteobridge,2013-11-23 14:09:00,
2013-11-23 08:14:00,43.9,42.6,30.27,North,5,15.0,17.0,95,0.00,,,0.00,44.0,meteobridge,2013-11-23 14:14:00,
2013-11-23 08:19:00,44.1,42.8,30.28,North,355,14.1,17.0,95,0.00,,,0.00,54.0,meteobridge,2013-11-23 14:19:00,
2013-11-23 08:24:00,44.2,43.0,30.28,North,5,10.1,14.1,95,0.00,,,0.00,62.0,meteobridge,2013-11-23 14:24:00,
2013-11-23 08:29:00,44.2,43.0,30.28,North,355,15.0,17.0,95,0.00,,,0.00,62.0,meteobridge,2013-11-23 14:29:00,
2013-11-23 08:34:00,44.2,43.0,30.28,NNE,16,14.1,19.0,95,0.00,,,0.00,100.0,meteobridge,2013-11-23 14:34:00,
2013-11-23 08:39:00,44.4,43.2,30.28,NNE,31,14.1,19.9,95,0.00,,,0.00,86.0,meteobridge,2013-11-23 14:39:00,
2013-11-23 08:44:00,44.4,43.2,30.28,NNE,17,12.1,17.9,95,0.00,,,0.00,53.0,meteobridge,2013-11-23 14:44:00,
2013-11-23 08:49:00,44.2,42.6,30.28,NNE,19,15.0,17.0,94,0.00,,,0.00,44.0,meteobridge,2013-11-23 14:49:00,
2013-11-23 08:54:00,44.8,43.5,30.28,North,9,14.1,14.1,95,0.00,,,0.00,47.0,meteobridge,2013-11-23 14:54:00,
2013-11-23 08:59:00,44.8,43.2,30.28,North,5,17.0,19.9,94,0.00,,,0.00,56.0,meteobridge,2013-11-23 14:59:00,
2013-11-23 09:04:00,44.6,43.0,30.29,NNW,335,11.0,19.9,94,0.00,,,0.00,49.0,meteobridge,2013-11-23 15:04:00,
2013-11-23 09:09:00,45.0,43.3,30.29,North,11,19.9,21.9,94,0.00,,,0.00,67.0,meteobridge,2013-11-23 15:09:00,
2013-11-23 09:14:00,45.0,43.3,30.29,North,0,17.9,17.9,94,0.00,,,0.00,100.0,meteobridge,2013-11-23 15:14:00,
2013-11-23 09:19:00,45.3,43.7,30.28,North,355,12.1,17.0,94,0.00,,,0.00,113.0,meteobridge,2013-11-23 15:19:00,
2013-11-23 09:24:00,45.3,43.7,30.28,North,355,6.9,12.1,94,0.00,,,0.00,109.0,meteobridge,2013-11-23 15:24:00,
2013-11-23 09:29:00,45.7,44.1,30.29,North,5,8.9,16.1,94,0.00,,,0.00,118.0,meteobridge,2013-11-23 15:29:00,
2013-11-23 09:34:00,45.5,43.9,30.29,North,355,17.0,17.0,94,0.00,,,0.00,149.0,meteobridge,2013-11-23 15:34:00,
2013-11-23 09:39:00,45.7,44.1,30.29,NNW,336,8.1,17.9,94,0.00,,,0.00,149.0,meteobridge,2013-11-23 15:39:00,
2013-11-23 09:44:00,45.7,43.7,30.30,North,5,14.1,19.9,93,0.00,,,0.00,153.0,meteobridge,2013-11-23 15:44:00,
2013-11-23 09:49:00,45.7,43.7,30.30,North,349,14.1,15.0,93,0.00,,,0.00,169.0,meteobridge,2013-11-23 15:49:00,
2013-11-23 09:54:00,45.9,43.9,30.30,North,355,6.0,16.1,93,0.00,,,0.00,137.0,meteobridge,2013-11-23 15:54:00,
2013-11-23 09:59:00,46.2,44.2,30.30,NNW,342,11.0,16.1,93,0.00,,,0.00,160.0,meteobridge,2013-11-23 15:59:00,
2013-11-23 10:04:00,46.2,44.2,30.30,North,5,13.0,17.0,93,0.00,,,0.00,202.0,meteobridge,2013-11-23 16:04:00,
2013-11-23 10:09:00,46.4,44.8,30.30,North,355,4.9,13.0,94,0.00,,,0.00,146.0,meteobridge,2013-11-23 16:09:00,
2013-11-23 10:14:00,46.2,44.6,30.31,NNW,336,6.9,15.0,94,0.00,,,0.00,107.0,meteobridge,2013-11-23 16:14:00,
2013-11-23 10:19:00,45.7,43.5,30.31,North,355,21.9,23.9,92,0.00,,,0.00,79.0,meteobridge,2013-11-23 16:19:00,
2013-11-23 10:24:00,45.7,44.1,30.31,North,351,12.1,15.0,94,0.00,,,0.00,67.0,meteobridge,2013-11-23 16:24:00,
2013-11-23 10:29:00,45.3,43.3,30.31,North,9,14.1,21.0,93,0.00,,,0.00,72.0,meteobridge,2013-11-23 16:29:00,
2013-11-23 10:34:00,45.3,43.3,30.31,NNE,13,12.1,17.9,93,0.00,,,0.00,141.0,meteobridge,2013-11-23 16:34:00,
2013-11-23 10:39:00,45.5,43.9,30.31,North,5,10.1,16.1,94,0.00,,,0.00,134.0,meteobridge,2013-11-23 16:39:00,
2013-11-23 10:44:00,45.1,43.5,30.31,North,5,16.1,19.9,94,0.00,,,0.00,146.0,meteobridge,2013-11-23 16:44:00,
2013-11-23 10:49:00,45.1,43.5,30.31,NNW,331,6.9,19.0,94,0.00,,,0.00,214.0,meteobridge,2013-11-23 16:49:00,
2013-11-23 10:54:00,45.1,43.2,30.31,NNE,19,10.1,19.0,93,0.00,,,0.00,214.0,meteobridge,2013-11-23 16:54:00,
2013-11-23 10:59:00,45.3,43.3,30.31,NNW,346,11.0,19.9,93,0.00,,,0.00,186.0,meteobridge,2013-11-23 16:59:00,
2013-11-23 11:04:00,45.5,43.5,30.31,North,5,17.0,17.9,93,0.00,,,0.00,169.0,meteobridge,2013-11-23 17:04:00,
2013-11-23 11:09:00,45.5,43.5,30.31,NNE,12,14.1,17.9,93,0.00,,,0.00,155.0,meteobridge,2013-11-23 17:09:00,
2013-11-23 11:14:00,45.5,43.3,30.30,NE,36,15.0,19.9,92,0.00,,,0.00,153.0,meteobridge,2013-11-23 17:14:00,
2013-11-23 11:19:00,45.1,43.0,30.30,NNE,24,16.1,19.9,92,0.00,,,0.00,155.0,meteobridge,2013-11-23 17:19:00,
2013-11-23 11:24:00,45.1,43.0,30.30,North,355,14.1,19.0,92,0.00,,,0.00,178.0,meteobridge,2013-11-23 17:24:00,
2013-11-23 11:29:00,45.5,43.3,30.29,NNE,14,14.1,21.9,92,0.00,,,0.00,214.0,meteobridge,2013-11-23 17:29:00,
2013-11-23 11:34:00,45.9,43.3,30.29,North,355,19.0,25.1,91,0.00,,,0.00,255.0,meteobridge,2013-11-23 17:34:00,
2013-11-23 11:39:00,45.9,43.2,30.29,North,0,13.0,19.9,90,0.00,,,0.00,248.0,meteobridge,2013-11-23 17:39:00,
2013-11-23 11:44:00,46.0,43.3,30.28,North,0,15.0,17.9,90,0.00,,,0.00,257.0,meteobridge,2013-11-23 17:44:00,
2013-11-23 11:49:00,46.2,43.5,30.28,NNE,13,11.0,17.0,90,0.00,,,0.00,211.0,meteobridge,2013-11-23 17:49:00,
2013-11-23 11:54:00,46.6,44.1,30.28,NNE,15,12.1,17.0,91,0.00,,,0.00,179.0,meteobridge,2013-11-23 17:54:00,
2013-11-23 11:59:00,46.2,43.7,30.28,North,0,19.0,19.9,91,0.00,,,0.00,209.0,meteobridge,2013-11-23 17:59:00,
2013-11-23 12:05:00,46.2,43.5,30.28,NNE,26,10.1,17.0,90,0.00,,,0.00,272.0,meteobridge,2013-11-23 18:05:00,
2013-11-23 12:10:00,46.8,43.7,30.28,North,355,17.0,17.9,89,0.00,,,0.00,204.0,meteobridge,2013-11-23 18:10:00,
2013-11-23 12:15:00,46.9,44.2,30.27,North,355,11.0,17.9,90,0.00,,,0.00,195.0,meteobridge,2013-11-23 18:15:00,
2013-11-23 12:20:00,46.8,43.7,30.27,North,355,15.0,19.0,89,0.00,,,0.00,167.0,meteobridge,2013-11-23 18:20:00,
2013-11-23 12:25:00,46.4,43.0,30.27,NNE,24,14.1,17.0,88,0.00,,,0.00,165.0,meteobridge,2013-11-23 18:25:00,
2013-11-23 12:30:00,46.6,43.5,30.26,North,5,11.0,15.0,89,0.00,,,0.00,179.0,meteobridge,2013-11-23 18:30:00,
2013-11-23 12:35:00,46.8,43.7,30.26,North,5,13.0,17.9,89,0.00,,,0.00,207.0,meteobridge,2013-11-23 18:35:00,
2013-11-23 12:40:00,46.9,43.9,30.26,North,5,14.1,19.0,89,0.00,,,0.00,206.0,meteobridge,2013-11-23 18:40:00,
2013-11-23 12:45:00,47.1,44.1,30.25,NNE,23,15.0,16.1,89,0.00,,,0.00,171.0,meteobridge,2013-11-23 18:45:00,
2013-11-23 12:50:00,47.1,43.7,30.25,North,0,19.9,23.0,88,0.00,,,0.00,179.0,meteobridge,2013-11-23 18:50:00,
2013-11-23 12:55:00,47.1,43.7,30.25,NNE,17,13.0,19.0,88,0.00,,,0.00,192.0,meteobridge,2013-11-23 18:55:00,
2013-11-23 13:00:00,46.9,43.5,30.25,NNE,23,11.0,19.0,88,0.00,,,0.00,165.0,meteobridge,2013-11-23 19:00:00,
2013-11-23 13:05:00,47.1,44.1,30.25,NE,38,15.0,19.0,89,0.00,,,0.00,139.0,meteobridge,2013-11-23 19:05:00,
2013-11-23 13:10:00,47.1,44.1,30.25,North,0,12.1,21.0,89,0.00,,,0.00,149.0,meteobridge,2013-11-23 19:10:00,
2013-11-23 13:15:00,47.1,44.1,30.25,North,350,11.0,17.0,89,0.00,,,0.00,148.0,meteobridge,2013-11-23 19:15:00,
2013-11-23 13:20:00,47.3,44.6,30.25,North,355,13.0,16.1,90,0.00,,,0.00,137.0,meteobridge,2013-11-23 19:20:00,
2013-11-23 13:25:00,46.9,43.9,30.25,NNE,13,15.0,21.0,89,0.00,,,0.00,135.0,meteobridge,2013-11-23 19:25:00,
2013-11-23 13:30:00,46.9,43.9,30.24,North,5,10.1,16.1,89,0.00,,,0.00,130.0,meteobridge,2013-11-23 19:30:00,
2013-11-23 13:35:00,46.9,43.9,30.24,North,5,15.0,19.0,89,0.00,,,0.00,132.0,meteobridge,2013-11-23 19:35:00,
2013-11-23 13:40:00,46.9,43.9,30.24,North,10,13.0,17.0,89,0.00,,,0.00,141.0,meteobridge,2013-11-23 19:40:00,
2013-11-23 13:45:00,47.1,44.4,30.23,North,355,6.9,17.0,90,0.00,,,0.00,118.0,meteobridge,2013-11-23 19:45:00,
2013-11-23 13:50:00,47.1,44.1,30.23,NNE,29,10.1,16.1,89,0.00,,,0.00,121.0,meteobridge,2013-11-23 19:50:00,
2013-11-23 13:55:00,47.5,44.4,30.23,North,355,14.1,17.9,89,0.00,,,0.00,90.0,meteobridge,2013-11-23 19:55:00,
2013-11-23 14:00:00,47.5,44.8,30.24,North,355,15.0,19.0,90,0.00,,,0.00,90.0,meteobridge,2013-11-23 20:00:00,
2013-11-23 14:05:00,47.3,44.2,30.24,North,9,10.1,16.1,89,0.00,,,0.00,97.0,meteobridge,2013-11-23 20:05:00,
2013-11-23 14:10:00,47.3,44.2,30.24,North,5,11.0,15.0,89,0.00,,,0.00,109.0,meteobridge,2013-11-23 20:10:00,
2013-11-23 14:15:00,47.5,44.1,30.24,NNE,31,12.1,16.1,88,0.00,,,0.00,105.0,meteobridge,2013-11-23 20:15:00,
2013-11-23 14:20:00,47.5,44.1,30.24,NNE,15,8.9,14.1,88,0.00,,,0.00,102.0,meteobridge,2013-11-23 20:20:00,
2013-11-23 14:25:00,47.5,44.1,30.24,North,355,14.1,16.1,88,0.00,,,0.00,100.0,meteobridge,2013-11-23 20:25:00,
2013-11-23 14:30:00,47.7,44.6,30.24,North,355,13.0,19.0,89,0.00,,,0.00,105.0,meteobridge,2013-11-23 20:30:00,
2013-11-23 14:35:00,47.7,44.6,30.24,NNE,12,15.0,15.0,89,0.00,,,0.00,88.0,meteobridge,2013-11-23 20:35:00,
2013-11-23 14:40:00,47.7,44.6,30.24,North,5,13.0,19.9,89,0.00,,,0.00,88.0,meteobridge,2013-11-23 20:40:00,
2013-11-23 14:45:00,47.3,43.9,30.24,North,5,12.1,19.9,88,0.00,,,0.00,79.0,meteobridge,2013-11-23 20:45:00,
2013-11-23 14:50:00,47.5,44.4,30.24,North,355,12.1,19.0,89,0.00,,,0.00,84.0,meteobridge,2013-11-23 20:50:00,
2013-11-23 14:55:00,47.5,44.4,30.24,North,0,14.1,21.0,89,0.00,,,0.00,70.0,meteobridge,2013-11-23 20:55:00,
2013-11-23 15:00:00,47.1,43.7,30.24,North,11,12.1,17.9,88,0.00,,,0.00,69.0,meteobridge,2013-11-23 21:00:00,
2013-11-23 15:05:00,47.1,43.7,30.24,North,5,16.1,17.9,88,0.00,,,0.00,69.0,meteobridge,2013-11-23 21:05:00,
2013-11-23 15:10:00,46.9,43.5,30.24,North,9,13.0,17.9,88,0.00,,,0.00,67.0,meteobridge,2013-11-23 21:10:00,
2013-11-23 15:15:00,47.1,44.1,30.24,NNW,347,11.0,21.0,89,0.00,,,0.00,63.0,meteobridge,2013-11-23 21:15:00,
2013-11-23 15:20:00,47.3,43.9,30.24,North,5,16.1,19.9,88,0.00,,,0.00,56.0,meteobridge,2013-11-23 21:20:00,
2013-11-23 15:25:00,47.1,43.7,30.24,North,355,17.9,17.9,88,0.00,,,0.00,53.0,meteobridge,2013-11-23 21:25:00,
2013-11-23 15:30:00,46.9,43.5,30.24,NNE,26,14.1,17.0,88,0.00,,,0.00,49.0,meteobridge,2013-11-23 21:30:00,
2013-11-23 15:36:00,46.9,43.5,30.24,NNE,28,6.9,13.0,88,0.00,,,0.00,46.0,meteobridge,2013-11-23 21:36:00,
2013-11-23 15:41:00,47.1,44.1,30.24,North,351,13.0,17.0,89,0.00,,,0.00,37.0,meteobridge,2013-11-23 21:41:00,
2013-11-23 15:46:00,47.1,44.1,30.24,NNE,31,6.9,19.9,89,0.00,,,0.00,39.0,meteobridge,2013-11-23 21:46:00,
2013-11-23 15:51:00,46.9,43.9,30.24,NNE,13,12.1,17.9,89,0.00,,,0.00,39.0,meteobridge,2013-11-23 21:51:00,
2013-11-23 15:56:00,46.9,43.9,30.24,NNE,27,11.0,14.1,89,0.00,,,0.00,23.0,meteobridge,2013-11-23 21:56:00,
2013-11-23 16:01:00,46.8,43.7,30.25,North,9,6.9,12.1,89,0.00,,,0.00,30.0,meteobridge,2013-11-23 22:01:00,
2013-11-23 16:06:00,46.8,43.3,30.25,North,11,11.0,17.9,88,0.00,,,0.00,35.0,meteobridge,2013-11-23 22:06:00,
2013-11-23 16:11:00,46.9,43.9,30.25,North,5,15.0,17.9,89,0.00,,,0.00,40.0,meteobridge,2013-11-23 22:11:00,
2013-11-23 16:16:00,46.8,43.3,30.25,North,355,16.1,19.0,88,0.00,,,0.00,44.0,meteobridge,2013-11-23 22:16:00,
2013-11-23 16:21:00,46.8,43.7,30.25,NNE,12,10.1,17.0,89,0.00,,,0.00,40.0,meteobridge,2013-11-23 22:21:00,
2013-11-23 16:26:00,46.6,43.2,30.25,NNE,13,10.1,21.0,88,0.00,,,0.00,35.0,meteobridge,2013-11-23 22:26:00,
2013-11-23 16:31:00,46.6,43.2,30.24,North,5,13.0,15.0,88,0.00,,,0.00,30.0,meteobridge,2013-11-23 22:31:00,
2013-11-23 16:36:00,46.4,43.3,30.24,NNE,17,12.1,17.9,89,0.00,,,0.00,28.0,meteobridge,2013-11-23 22:36:00,
2013-11-23 16:41:00,46.2,42.8,30.24,North,0,10.1,19.9,88,0.00,,,0.00,21.0,meteobridge,2013-11-23 22:41:00,
2013-11-23 16:46:00,46.4,43.3,30.25,North,9,14.1,15.0,89,0.00,,,0.00,16.0,meteobridge,2013-11-23 22:46:00,
2013-11-23 16:51:00,46.4,43.3,30.25,North,5,14.1,17.9,89,0.00,,,0.00,12.0,meteobridge,2013-11-23 22:51:00,
2013-11-23 16:56:00,46.2,43.2,30.25,North,5,13.0,16.1,89,0.00,,,0.00,9.0,meteobridge,2013-11-23 22:56:00,
2013-11-23 17:01:00,46.2,43.2,30.25,NNE,17,8.9,11.0,89,0.00,,,0.00,5.0,meteobridge,2013-11-23 23:01:00,
2013-11-23 17:06:00,46.2,43.2,30.25,North,5,10.1,11.0,89,0.00,,,0.00,0.0,meteobridge,2013-11-23 23:06:00,
2013-11-23 17:09:00,46.2,43.2,30.25,North,11,12.1,15.0,89,0.00,,,0.00,0.0,meteobridge,2013-11-23 23:09:00,
2013-11-23 17:14:00,46.4,43.3,30.25,North,355,11.0,19.0,89,0.00,,,0.00,0.0,meteobridge,2013-11-23 23:14:00,
2013-11-23 17:19:00,46.4,43.3,30.26,North,5,8.9,16.1,89,0.00,,,0.00,0.0,meteobridge,2013-11-23 23:19:00,
2013-11-23 17:24:00,46.6,43.9,30.26,NNE,19,8.1,12.1,90,0.00,,,0.00,0.0,meteobridge,2013-11-23 23:24:00,
2013-11-23 17:29:00,46.6,43.5,30.26,North,9,11.0,15.0,89,0.00,,,0.00,0.0,meteobridge,2013-11-23 23:29:00,
2013-11-23 17:34:00,46.4,43.7,30.26,NNE,19,8.1,14.1,90,0.00,,,0.00,0.0,meteobridge,2013-11-23 23:34:00,
2013-11-23 17:39:00,46.4,43.7,30.26,North,5,11.0,16.1,90,0.00,,,0.00,0.0,meteobridge,2013-11-23 23:39:00,
2013-11-23 17:44:00,46.2,43.5,30.26,North,0,13.0,15.0,90,0.00,,,0.00,0.0,meteobridge,2013-11-23 23:44:00,
2013-11-23 17:49:00,46.4,43.7,30.27,NNE,14,15.0,17.9,90,0.00,,,0.00,0.0,meteobridge,2013-11-23 23:49:00,
2013-11-23 17:54:00,46.6,43.9,30.27,North,351,17.0,17.0,90,0.00,,,0.00,0.0,meteobridge,2013-11-23 23:54:00,
2013-11-23 17:59:00,46.8,44.1,30.27,NNE,13,15.0,17.0,90,0.00,,,0.00,0.0,meteobridge,2013-11-23 23:59:00,
2013-11-23 18:04:00,46.6,43.9,30.27,North,355,11.0,17.0,90,0.00,,,0.00,0.0,meteobridge,2013-11-24 00:04:00,
2013-11-23 18:09:00,46.6,43.9,30.27,NNW,336,12.1,17.0,90,0.00,,,0.00,0.0,meteobridge,2013-11-24 00:09:00,
2013-11-23 18:14:00,46.8,44.1,30.27,North,11,11.0,14.1,90,0.00,,,0.00,0.0,meteobridge,2013-11-24 00:14:00,
2013-11-23 18:19:00,46.8,44.1,30.26,NNE,16,6.9,15.0,90,0.00,,,0.00,0.0,meteobridge,2013-11-24 00:19:00,
2013-11-23 18:24:00,46.8,44.1,30.26,NE,34,8.1,17.0,90,0.00,,,0.00,0.0,meteobridge,2013-11-24 00:24:00,
2013-11-23 18:29:00,46.6,43.9,30.26,North,5,13.0,15.0,90,0.00,,,0.00,0.0,meteobridge,2013-11-24 00:29:00,
2013-11-23 18:34:00,46.6,43.9,30.26,NNE,19,10.1,16.1,90,0.00,,,0.00,0.0,meteobridge,2013-11-24 00:34:00,
2013-11-23 18:39:00,46.6,43.9,30.26,NNE,19,11.0,16.1,90,0.00,,,0.00,0.0,meteobridge,2013-11-24 00:39:00,
2013-11-23 18:44:00,46.8,44.1,30.27,NNW,346,6.0,13.0,90,0.00,,,0.00,0.0,meteobridge,2013-11-24 00:44:00,
2013-11-23 18:49:00,46.9,44.2,30.27,NNE,23,8.1,15.0,90,0.00,,,0.00,0.0,meteobridge,2013-11-24 00:49:00,
2013-11-23 18:54:00,46.8,44.1,30.27,NNE,15,15.0,15.0,90,0.00,,,0.00,0.0,meteobridge,2013-11-24 00:54:00,
2013-11-23 18:59:00,46.6,43.9,30.26,NNE,12,10.1,12.1,90,0.00,,,0.00,0.0,meteobridge,2013-11-24 00:59:00,
2013-11-23 19:04:00,46.8,44.1,30.26,NNE,21,6.9,16.1,90,0.00,,,0.00,0.0,meteobridge,2013-11-24 01:04:00,
2013-11-23 19:09:00,46.8,44.1,30.26,NNE,14,8.9,14.1,90,0.00,,,0.00,0.0,meteobridge,2013-11-24 01:09:00,
2013-11-23 19:14:00,46.8,44.1,30.27,NNE,29,14.1,17.9,90,0.00,,,0.00,0.0,meteobridge,2013-11-24 01:14:00,
2013-11-23 19:19:00,46.8,44.1,30.27,NNE,13,11.0,15.0,90,0.00,,,0.00,0.0,meteobridge,2013-11-24 01:19:00,
2013-11-23 19:24:00,46.8,44.2,30.27,NNE,30,11.0,17.9,91,0.00,,,0.00,0.0,meteobridge,2013-11-24 01:24:00,
2013-11-23 19:29:00,46.9,44.4,30.28,NNE,32,6.9,13.0,91,0.00,,,0.00,0.0,meteobridge,2013-11-24 01:29:00,
2013-11-23 19:34:00,46.9,44.8,30.28,North,350,12.1,16.1,92,0.00,,,0.00,0.0,meteobridge,2013-11-24 01:34:00,
2013-11-23 19:39:00,47.1,45.0,30.28,North,5,15.0,19.0,92,0.00,,,0.00,0.0,meteobridge,2013-11-24 01:39:00,
2013-11-23 19:44:00,47.1,45.0,30.28,North,0,12.1,12.1,92,0.00,,,0.00,0.0,meteobridge,2013-11-24 01:44:00,
2013-11-23 19:49:00,47.1,45.0,30.28,North,0,8.9,13.0,92,0.00,,,0.00,0.0,meteobridge,2013-11-24 01:49:00,
2013-11-23 19:54:00,47.1,45.0,30.28,NNE,18,13.0,19.9,92,0.00,,,0.00,0.0,meteobridge,2013-11-24 01:54:00,
2013-11-23 19:59:00,47.1,45.0,30.29,North,355,13.0,14.1,92,0.00,,,0.00,0.0,meteobridge,2013-11-24 01:59:00,
2013-11-23 20:04:00,47.1,45.0,30.29,NNE,15,11.0,15.0,92,0.00,,,0.00,0.0,meteobridge,2013-11-24 02:04:00,
2013-11-23 20:09:00,47.1,45.0,30.29,NNW,346,8.9,16.1,92,0.00,,,0.00,0.0,meteobridge,2013-11-24 02:09:00,
2013-11-23 20:14:00,47.1,45.1,30.29,NNE,15,8.1,14.1,93,0.00,,,0.00,0.0,meteobridge,2013-11-24 02:14:00,
2013-11-23 20:19:00,47.3,45.3,30.29,North,5,10.1,14.1,93,0.00,,,0.00,0.0,meteobridge,2013-11-24 02:19:00,
2013-11-23 20:24:00,47.3,45.3,30.29,NNE,16,12.1,12.1,93,0.00,,,0.00,0.0,meteobridge,2013-11-24 02:24:00,
2013-11-23 20:29:00,47.1,45.1,30.30,NNW,342,8.1,15.0,93,0.00,,,0.00,0.0,meteobridge,2013-11-24 02:29:00,
2013-11-23 20:34:00,47.1,45.1,30.30,NE,37,10.1,17.9,93,0.00,,,0.00,0.0,meteobridge,2013-11-24 02:34:00,
2013-11-23 20:39:00,47.1,45.1,30.30,NNE,17,8.1,15.0,93,0.00,,,0.00,0.0,meteobridge,2013-11-24 02:39:00,
2013-11-23 20:44:00,47.1,45.5,30.30,North,11,8.9,13.0,94,0.00,,,0.00,0.0,meteobridge,2013-11-24 02:44:00,
2013-11-23 20:49:00,46.9,45.3,30.30,North,0,11.0,17.0,94,0.00,,,0.00,0.0,meteobridge,2013-11-24 02:49:00,
2013-11-23 20:54:00,46.9,45.3,30.30,NNE,32,6.0,14.1,94,0.00,,,0.00,0.0,meteobridge,2013-11-24 02:54:00,
2013-11-23 20:59:00,46.8,45.1,30.29,NNE,18,8.9,13.0,94,0.00,,,0.00,0.0,meteobridge,2013-11-24 02:59:00,
2013-11-23 21:05:00,46.8,45.1,30.29,North,11,6.9,12.1,94,0.00,,,0.00,0.0,meteobridge,2013-11-24 03:05:00,
2013-11-23 21:10:00,46.8,45.1,30.29,North,355,11.0,14.1,94,0.00,,,0.00,0.0,meteobridge,2013-11-24 03:10:00,
2013-11-23 21:15:00,46.8,45.3,30.29,NNE,29,8.1,13.0,95,0.00,,,0.00,0.0,meteobridge,2013-11-24 03:15:00,
2013-11-23 21:20:00,46.8,45.3,30.29,NNE,13,6.9,15.0,95,0.00,,,0.00,0.0,meteobridge,2013-11-24 03:20:00,
2013-11-23 21:25:00,46.8,45.3,30.29,NE,40,8.9,15.0,95,0.00,,,0.00,0.0,meteobridge,2013-11-24 03:25:00,
2013-11-23 21:30:00,46.8,45.3,30.29,NNE,26,6.9,13.0,95,0.00,,,0.00,0.0,meteobridge,2013-11-24 03:30:00,
2013-11-23 21:35:00,46.9,45.5,30.29,North,11,4.9,10.1,95,0.00,,,0.00,0.0,meteobridge,2013-11-24 03:35:00,
2013-11-23 21:40:00,46.9,45.5,30.29,North,5,6.9,11.0,95,0.00,,,0.00,0.0,meteobridge,2013-11-24 03:40:00,
2013-11-23 21:45:00,47.1,45.7,30.30,NNE,13,8.9,10.1,95,0.00,,,0.00,0.0,meteobridge,2013-11-24 03:45:00,
2013-11-23 21:50:00,47.1,45.7,30.30,North,10,6.9,14.1,95,0.00,,,0.00,0.0,meteobridge,2013-11-24 03:50:00,
2013-11-23 21:55:00,47.3,45.9,30.30,NNE,30,6.0,10.1,95,0.00,,,0.00,0.0,meteobridge,2013-11-24 03:55:00,
2013-11-23 22:00:00,47.5,46.0,30.29,NE,53,4.9,11.0,95,0.00,,,0.00,0.0,meteobridge,2013-11-24 04:00:00,
2013-11-23 22:05:00,47.5,46.0,30.29,NNE,23,6.0,12.1,95,0.00,,,0.00,0.0,meteobridge,2013-11-24 04:05:00,
2013-11-23 22:10:00,47.7,46.0,30.29,NE,40,10.1,16.1,94,0.00,,,0.00,0.0,meteobridge,2013-11-24 04:10:00,
2013-11-23 22:15:00,47.8,46.2,30.30,NNE,22,4.0,8.9,94,0.00,,,0.00,0.0,meteobridge,2013-11-24 04:15:00,
2013-11-23 22:20:00,47.8,46.2,30.30,NNE,19,2.9,12.1,94,0.00,,,0.00,0.0,meteobridge,2013-11-24 04:20:00,
2013-11-23 22:25:00,48.0,46.0,30.30,NE,37,4.9,10.1,93,0.00,,,0.00,0.0,meteobridge,2013-11-24 04:25:00,
2013-11-23 22:30:00,48.0,46.0,30.29,NE,43,4.0,10.1,93,0.00,,,0.00,0.0,meteobridge,2013-11-24 04:30:00,
2013-11-23 22:35:00,48.0,46.0,30.29,NNE,26,6.9,11.0,93,0.00,,,0.00,0.0,meteobridge,2013-11-24 04:35:00,
2013-11-23 22:40:00,48.2,46.0,30.29,NE,46,2.0,6.0,92,0.00,,,0.00,0.0,meteobridge,2013-11-24 04:40:00,
2013-11-23 22:45:00,48.4,46.2,30.29,NE,45,2.9,8.1,92,0.00,,,0.00,0.0,meteobridge,2013-11-24 04:45:00,
2013-11-23 22:50:00,48.4,45.9,30.29,NNE,26,6.9,10.1,91,0.00,,,0.00,0.0,meteobridge,2013-11-24 04:50:00,
2013-11-23 22:55:00,48.4,45.9,30.29,NNE,12,8.1,12.1,91,0.00,,,0.00,0.0,meteobridge,2013-11-24 04:55:00,
2013-11-23 23:00:00,48.4,45.5,30.29,NE,41,4.9,13.0,90,0.00,,,0.00,0.0,meteobridge,2013-11-24 05:00:00,
2013-11-23 23:01:00,48.4,45.5,30.29,NNE,24,6.0,13.0,90,0.00,,,0.00,0.0,meteobridge,2013-11-24 05:01:00,
2013-11-23 23:02:00,48.4,45.5,30.29,NE,46,6.0,11.0,90,0.00,,,0.00,0.0,meteobridge,2013-11-24 05:02:00,
2013-11-23 23:07:00,48.4,45.5,30.29,NNE,24,6.0,12.1,90,0.00,,,0.00,0.0,meteobridge,2013-11-24 05:07:00,
2013-11-23 23:12:00,48.6,45.5,30.29,NNE,26,12.1,14.1,89,0.00,,,0.00,0.0,meteobridge,2013-11-24 05:12:00,
2013-11-23 23:17:00,48.6,45.5,30.30,NE,45,2.9,13.0,89,0.00,,,0.00,0.0,meteobridge,2013-11-24 05:17:00,
2013-11-23 23:22:00,48.6,45.5,30.30,NE,35,4.9,14.1,89,0.00,,,0.00,0.0,meteobridge,2013-11-24 05:22:00,
2013-11-23 23:27:00,48.4,45.3,30.30,North,11,10.1,12.1,89,0.00,,,0.00,0.0,meteobridge,2013-11-24 05:27:00,
2013-11-23 23:32:00,48.6,45.5,30.29,NE,36,2.9,8.1,89,0.00,,,0.00,0.0,meteobridge,2013-11-24 05:32:00,
2013-11-23 23:37:00,48.4,45.0,30.29,NE,46,6.0,6.9,88,0.00,,,0.00,0.0,meteobridge,2013-11-24 05:37:00,
2013-11-23 23:42:00,48.4,45.0,30.29,NE,49,6.9,10.1,88,0.00,,,0.00,0.0,meteobridge,2013-11-24 05:42:00,
2013-11-23 23:48:00,48.4,45.0,30.30,North,11,4.9,8.9,88,0.00,,,0.00,0.0,meteobridge,2013-11-24 05:48:00,
2013-11-23 23:53:00,48.4,45.0,30.30,NNE,15,6.9,8.9,88,0.00,,,0.00,0.0,meteobridge,2013-11-24 05:53:00,
2013-11-23 23:57:00,48.2,44.8,30.30,North,9,10.1,11.0,88,0.00,,,0.00,0.0,meteobridge,2013-11-24 05:57:00,